Time;durP1;ratioP1;P1;durP2;ratioP2;P2;SDS_P1;SDS_P2;PMS_P1;PMS_P2;Temp;Humidity;BMP_temperature;BMP_pressure;BME280_temperature;BME280_humidity;BME280_pressure;Samples;Min_cycle;Max_cycle;Signal;HPM_P1;HPM_P2
2021/12/24 00:00:56;;;;;;;15.55;7.50;;;;;;;7.76;100.00;100298.06;5036897;28;20187;-73
2021/12/24 00:03:24;;;;;;;13.95;8.45;;;;;;;7.72;100.00;100296.63;5051943;28;20041;-74
2021/12/24 00:05:51;;;;;;;12.18;7.50;;;;;;;7.76;100.00;100298.06;5060500;28;20068;-73
2021/12/24 00:08:18;;;;;;;15.35;8.65;;;;;;;7.79;100.00;100293.47;5051748;28;20467;-73
2021/12/24 00:10:56;;;;;;;16.85;8.15;;;;;;;7.80;100.00;100296.91;5040252;28;20036;-76
2021/12/24 00:13:23;;;;;;;12.32;6.65;;;;;;;7.77;100.00;100289.25;5035101;28;20049;-73
2021/12/24 00:15:55;;;;;;;19.35;8.52;;;;;;;7.81;100.00;100286.31;5031230;28;20088;-73
2021/12/24 00:18:32;;;;;;;;;;;;;;;7.80;100.00;100291.66;5032048;28;20069;-74
2021/12/24 00:35:11;;;;;;;11.02;6.45;;;;;;;7.91;100.00;100286.47;5034239;28;20088;-74
2021/12/24 00:37:38;;;;;;;11.07;5.85;;;;;;;7.94;100.00;100280.03;5040848;28;20046;-73
2021/12/24 00:40:12;;;;;;;18.33;7.57;;;;;;;7.93;100.00;100281.94;5046041;28;20040;-73
2021/12/24 00:42:44;;;;;;;12.45;6.60;;;;;;;7.94;100.00;100272.19;5051015;28;20116;-74
2021/12/24 00:45:12;;;;;;;8.93;5.30;;;;;;;7.95;100.00;100273.06;5051210;28;20037;-74
2021/12/24 00:47:39;;;;;;;18.05;8.95;;;;;;;7.97;100.00;100274.59;5036955;28;20733;-74
2021/12/24 00:50:10;;;;;;;14.07;8.15;;;;;;;7.96;100.00;100270.31;5035512;28;20102;-73
2021/12/24 00:52:47;;;;;;;13.73;7.43;;;;;;;8.00;100.00;100260.44;5036911;28;20049;-73
2021/12/24 00:55:15;;;;;;;10.70;7.65;;;;;;;7.98;100.00;100263.19;5032005;28;20041;-74
2021/12/24 00:57:45;;;;;;;11.80;6.80;;;;;;;8.00;100.00;100263.06;5037119;28;20059;-75
2021/12/24 01:00:15;;;;;;;13.93;7.60;;;;;;;7.98;100.00;100262.34;5033288;28;20048;-74
2021/12/24 01:02:42;;;;;;;12.60;5.95;;;;;;;8.02;100.00;100264.59;5051098;28;20046;-72
2021/12/24 01:05:09;;;;;;;20.92;7.50;;;;;;;8.02;100.00;100267.22;5029735;28;20047;-75
2021/12/24 01:07:36;;;;;;;17.42;9.88;;;;;;;7.99;100.00;100264.84;5030537;28;20045;-75
2021/12/24 01:10:04;;;;;;;11.73;6.20;;;;;;;8.02;100.00;100259.38;5032145;28;20116;-74
2021/12/24 01:12:31;;;;;;;23.00;9.45;;;;;;;8.04;100.00;100252.25;5029750;28;20077;-75
2021/12/24 01:14:59;;;;;;;13.77;8.57;;;;;;;8.05;100.00;100253.91;5034369;28;20041;-76
2021/12/24 01:17:34;;;;;;;13.13;8.23;;;;;;;8.06;100.00;100249.50;5032968;28;20164;-76
2021/12/24 01:20:07;;;;;;;21.60;9.82;;;;;;;8.09;100.00;100250.09;5030950;28;20192;-72
2021/12/24 01:25:25;;;;;;;10.13;6.35;;;;;;;8.14;100.00;100242.75;5026195;28;20064;-74
2021/12/24 01:28:24;;;;;;;14.15;8.23;;;;;;;8.14;100.00;100252.38;5033830;28;20037;-74
2021/12/24 01:39:11;;;;;;;12.40;7.75;;;;;;;8.29;100.00;100246.84;5032248;28;20061;-74
2021/12/24 01:44:27;;;;;;;19.08;9.75;;;;;;;8.37;100.00;100243.63;5039852;28;20037;-74
2021/12/24 01:46:58;;;;;;;15.73;7.82;;;;;;;8.33;100.00;100237.78;5039939;28;20131;-73
2021/12/24 01:49:25;;;;;;;20.85;10.00;;;;;;;8.37;100.00;100248.88;5034946;28;20128;-72
2021/12/24 01:51:54;;;;;;;23.10;8.93;;;;;;;8.37;100.00;100251.47;5051920;28;20094;-73
2021/12/24 01:54:21;;;;;;;19.40;10.80;;;;;;;8.38;100.00;100235.66;5039537;28;20072;-73
2021/12/24 01:56:50;;;;;;;21.42;10.43;;;;;;;8.40;100.00;100249.47;5034776;28;20045;-74
2021/12/24 01:59:24;;;;;;;19.30;9.20;;;;;;;8.48;100.00;100234.00;5039039;28;20480;-73
2021/12/24 02:01:53;;;;;;;28.25;13.00;;;;;;;8.46;100.00;100233.28;5064041;28;20039;-72
2021/12/24 02:04:21;;;;;;;15.20;9.40;;;;;;;8.55;100.00;100236.94;5036023;28;20505;-74
2021/12/24 02:06:49;;;;;;;23.33;10.40;;;;;;;8.55;100.00;100243.03;5039140;28;20075;-72
2021/12/24 02:09:16;;;;;;;24.15;12.80;;;;;;;8.55;100.00;100240.41;5033030;28;20064;-74
2021/12/24 02:11:44;;;;;;;21.75;12.05;;;;;;;8.58;100.00;100241.94;5037137;28;20041;-72
2021/12/24 02:14:13;;;;;;;24.08;11.88;;;;;;;8.56;100.00;100236.84;5037026;28;20052;-72
2021/12/24 02:16:53;;;;;;;23.13;11.93;;;;;;;8.59;100.00;100236.56;5031232;28;20140;-74
2021/12/24 02:30:39;;;;;;;21.83;10.65;;;;;;;8.68;100.00;100227.19;5033838;28;20124;-74
2021/12/24 02:33:06;;;;;;;21.20;11.40;;;;;;;8.71;100.00;100230.38;5034124;28;20060;-75
2021/12/24 02:35:34;;;;;;;21.70;11.38;;;;;;;8.71;100.00;100225.16;5040403;28;20045;-74
2021/12/24 02:38:03;;;;;;;16.67;5.15;;;;;;;8.74;100.00;100224.88;5035377;28;20072;-75
2021/12/24 02:40:30;;;;;;;20.58;12.10;;;;;;;8.72;100.00;100226.81;5039925;28;20053;-75
2021/12/24 02:42:59;;;;;;;24.40;11.15;;;;;;;8.75;100.00;100229.16;5041206;28;20134;-75
2021/12/24 02:45:27;;;;;;;28.23;13.02;;;;;;;8.72;100.00;100223.34;5043760;28;20049;-72
2021/12/24 02:48:14;;;;;;;26.88;13.65;;;;;;;8.72;100.00;100218.97;5055143;28;20048;-73
2021/12/24 02:56:13;;;;;;;19.60;11.57;;;;;;;8.76;100.00;100217.75;5044203;28;20037;-73
2021/12/24 02:58:42;;;;;;;29.27;13.70;;;;;;;8.76;100.00;100212.50;5035790;28;20041;-73
2021/12/24 03:01:10;;;;;;;14.27;8.30;;;;;;;8.79;100.00;100204.41;5035786;28;20130;-73
2021/12/24 03:03:36;;;;;;;18.42;9.38;;;;;;;8.80;100.00;100216.56;5032689;28;20053;-72
2021/12/24 03:06:03;;;;;;;19.98;10.15;;;;;;;8.80;100.00;100192.97;5038070;28;20064;-74
2021/12/24 03:08:33;;;;;;;26.83;12.88;;;;;;;8.79;100.00;100209.66;5030834;28;20643;-73
2021/12/24 03:11:00;;;;;;;24.42;10.07;;;;;;;8.82;100.00;100204.19;5038134;28;20049;-73
2021/12/24 03:13:28;;;;;;;27.05;10.30;;;;;;;8.80;100.00;100204.28;5034651;28;20053;-73
2021/12/24 03:15:56;;;;;;;25.70;11.23;;;;;;;8.79;100.00;100210.47;5037623;28;20037;-73
2021/12/24 03:18:27;;;;;;;23.60;11.18;;;;;;;8.75;100.00;100204.78;5044948;28;20045;-73
2021/12/24 03:21:00;;;;;;;17.17;9.05;;;;;;;8.80;100.00;100213.94;5042707;28;20098;-73
2021/12/24 03:23:36;;;;;;;18.73;10.27;;;;;;;8.82;100.00;100219.88;5035233;28;20052;-75
2021/12/24 03:26:06;;;;;;;26.92;14.02;;;;;;;8.80;100.00;100214.75;5028598;28;20060;-75
2021/12/24 03:28:33;;;;;;;18.98;11.13;;;;;;;8.80;100.00;100216.56;5030268;28;20056;-73
2021/12/24 03:31:00;;;;;;;21.25;10.13;;;;;;;8.80;100.00;100200.84;5032406;28;20062;-73
2021/12/24 03:33:27;;;;;;;39.50;13.73;;;;;;;8.77;100.00;100206.31;5028130;28;20118;-72
2021/12/24 03:35:54;;;;;;;30.98;14.73;;;;;;;8.81;100.00;100198.09;5032483;28;20053;-74
2021/12/24 03:38:21;;;;;;;20.67;12.20;;;;;;;8.78;100.00;100192.28;5032416;28;20158;-73
2021/12/24 03:40:48;;;;;;;21.90;12.55;;;;;;;8.79;100.00;100189.53;5026326;28;20080;-73
2021/12/24 03:43:16;;;;;;;28.48;13.68;;;;;;;8.81;100.00;100202.50;5030939;28;20121;-75
2021/12/24 03:45:49;;;;;;;26.10;11.55;;;;;;;8.81;100.00;100205.94;5026907;28;20076;-74
2021/12/24 03:48:20;;;;;;;28.75;13.18;;;;;;;8.84;99.79;100199.63;5034531;28;20052;-74
2021/12/24 03:50:56;;;;;;;20.35;9.48;;;;;;;8.92;100.00;100194.59;5027058;28;20045;-73
2021/12/24 03:56:06;;;;;;;32.78;14.75;;;;;;;8.86;99.95;100197.72;5032991;28;20060;-74
2021/12/24 03:58:34;;;;;;;26.42;12.43;;;;;;;8.90;99.24;100199.16;5029585;28;20048;-75
2021/12/24 04:01:01;;;;;;;23.08;11.82;;;;;;;8.87;99.85;100196.78;5031017;28;20411;-73
2021/12/24 04:03:28;;;;;;;27.35;11.65;;;;;;;8.93;99.60;100196.25;5030800;28;20124;-73
2021/12/24 04:05:54;;;;;;;25.23;11.57;;;;;;;8.96;99.33;100206.50;5027605;28;20134;-72
2021/12/24 04:08:21;;;;;;;48.63;15.82;;;;;;;8.95;100.00;100205.66;5031300;28;20491;-74
2021/12/24 04:10:49;;;;;;;35.63;14.40;;;;;;;8.94;99.29;100208.41;5033874;28;20064;-73
2021/12/24 04:13:17;;;;;;;27.13;13.93;;;;;;;8.96;99.31;100206.50;5033425;28;20041;-73
2021/12/24 04:15:45;;;;;;;29.92;12.60;;;;;;;8.98;99.47;100202.00;5032511;28;20119;-74
2021/12/24 04:18:17;;;;;;;31.17;14.35;;;;;;;9.02;99.43;100214.72;5032902;28;20141;-73
2021/12/24 04:26:14;;;;;;;23.38;12.07;;;;;;;9.07;100.00;100206.47;5040987;28;20067;-73
2021/12/24 04:28:41;;;;;;;30.35;13.35;;;;;;;9.13;99.80;100212.03;5039415;28;20041;-72
2021/12/24 04:31:10;;;;;;;44.60;15.80;;;;;;;9.10;99.33;100219.31;5038743;28;20090;-75
2021/12/24 04:33:39;;;;;;;21.95;11.40;;;;;;;9.11;100.00;100221.81;5037867;28;20575;-73
2021/12/24 04:36:21;;;;;;;45.60;16.70;;;;;;;9.08;100.00;100222.06;5041330;28;20033;-74
2021/12/24 04:39:14;;;;;;;34.13;14.00;;;;;;;9.14;100.00;100220.75;5035725;28;20682;-73
2021/12/24 04:53:07;;;;;;;25.45;12.05;;;;;;;9.07;100.00;100219.59;5054235;28;20132;-73
2021/12/24 05:01:21;;;;;;;43.92;15.65;;;;;;;9.07;99.56;100209.09;5038515;28;20090;-74
2021/12/24 05:03:49;;;;;;;23.70;12.27;;;;;;;9.04;100.00;100202.28;5036588;28;20076;-75
2021/12/24 05:06:29;;;;;;;35.67;13.57;;;;;;;8.98;99.88;100207.22;5038837;28;20037;-73
2021/12/24 05:08:59;;;;;;;33.92;11.15;;;;;;;8.97;99.79;100210.78;5038004;28;20049;-72
2021/12/24 05:11:26;;;;;;;36.55;13.50;;;;;;;8.94;100.00;100217.13;5037032;28;20037;-73
2021/12/24 05:13:54;;;;;;;23.50;9.90;;;;;;;8.95;100.00;100221.38;5032065;28;20040;-72
2021/12/24 05:16:24;;;;;;;47.63;15.30;;;;;;;8.96;99.40;100219.59;5032287;28;20080;-74
2021/12/24 05:21:33;;;;;;;36.05;11.77;;;;;;;8.96;99.45;100227.47;5036851;28;20079;-73
2021/12/24 05:21:52;;;;;;;28.20;13.10;;;;;;;8.98;99.40;100223.75;5034356;28;20124;-72
2021/12/24 05:24:21;;;;;;;29.30;12.00;;;;;;;8.97;100.00;100227.34;5034127;28;20041;-73
2021/12/24 05:26:50;;;;;;;33.40;15.02;;;;;;;8.97;100.00;100235.19;5028392;28;20049;-72
2021/12/24 05:29:19;;;;;;;43.20;13.45;;;;;;;8.94;99.67;100224.13;5036699;28;20064;-74
2021/12/24 05:31:46;;;;;;;31.30;13.82;;;;;;;8.97;99.49;100229.13;5036439;28;20033;-72
2021/12/24 05:34:17;;;;;;;32.45;13.75;;;;;;;8.95;99.66;100229.22;5030541;28;20041;-72
2021/12/24 05:36:45;;;;;;;32.05;15.18;;;;;;;8.98;99.08;100220.31;5036233;28;20603;-73
2021/12/24 05:39:14;;;;;;;30.40;12.73;;;;;;;8.95;99.29;100233.66;5035593;28;20040;-73
2021/12/24 05:41:41;;;;;;;33.60;13.25;;;;;;;8.97;99.52;100227.34;5040060;28;20106;-71
2021/12/24 05:44:09;;;;;;;32.22;15.13;;;;;;;8.97;99.77;100224.72;5034662;28;20055;-71
2021/12/24 05:46:37;;;;;;;43.08;16.10;;;;;;;8.94;98.74;100224.13;5037106;28;20554;-73
2021/12/24 05:49:04;;;;;;;30.52;13.95;;;;;;;8.95;98.75;100223.19;5041474;28;20037;-72
2021/12/24 05:51:33;;;;;;;34.67;15.93;;;;;;;8.93;99.40;100214.59;5051041;28;20125;-72
2021/12/24 05:54:00;;;;;;;27.55;14.98;;;;;;;8.92;99.45;100220.78;5058018;28;20351;-73
2021/12/24 05:56:26;;;;;;;20.23;9.00;;;;;;;8.97;99.20;100224.72;5063504;28;20060;-72
2021/12/24 05:58:53;;;;;;;32.95;10.48;;;;;;;9.03;99.03;100228.63;5037384;28;20052;-72
2021/12/24 06:01:21;;;;;;;43.95;14.65;;;;;;;9.01;98.25;100233.16;5037470;28;20037;-72
2021/12/24 06:03:48;;;;;;;18.95;10.50;;;;;;;9.02;98.29;100232.19;5038995;28;20050;-71
2021/12/24 06:06:15;;;;;;;38.83;15.07;;;;;;;8.98;98.86;100236.03;5034273;28;20033;-72
2021/12/24 06:08:43;;;;;;;24.30;10.38;;;;;;;9.01;99.23;100238.41;5038001;28;20063;-72
2021/12/24 06:11:10;;;;;;;41.17;15.52;;;;;;;8.99;99.13;100229.81;5032590;28;20040;-72
2021/12/24 06:13:37;;;;;;;34.17;14.13;;;;;;;8.97;98.02;100240.44;5036196;28;20072;-70
2021/12/24 06:19:15;;;;;;;26.77;13.13;;;;;;;9.06;97.39;100244.94;5089447;27;20433;-75
2021/12/24 06:21:42;;;;;;;44.22;14.60;;;;;;;9.08;98.65;100250.88;5071810;28;20044;-75
2021/12/24 06:24:09;;;;;;;24.27;10.73;;;;;;;9.06;97.67;100242.31;5073103;28;20075;-74
2021/12/24 06:26:36;;;;;;;18.90;9.20;;;;;;;9.07;97.53;100243.97;5071793;28;20090;-73
2021/12/24 06:29:03;;;;;;;28.08;10.98;;;;;;;9.09;97.74;100241.22;5069761;28;20076;-74
2021/12/24 06:31:30;;;;;;;37.13;13.27;;;;;;;9.10;97.09;100241.13;5068711;28;20029;-73
2021/12/24 06:33:57;;;;;;;64.88;13.75;;;;;;;9.00;97.40;100245.44;5067463;28;20040;-74
2021/12/24 06:36:30;;;;;;;20.52;9.48;;;;;;;9.09;98.15;100254.31;5076594;28;20086;-73
2021/12/24 06:38:57;;;;;;;22.55;9.73;;;;;;;9.06;97.27;100255.41;5055460;28;20059;-74
2021/12/24 06:41:23;;;;;;;32.65;10.35;;;;;;;9.07;97.43;100258.88;5080526;28;20048;-74
2021/12/24 06:43:50;;;;;;;30.88;14.13;;;;;;;9.02;97.30;100253.16;5083916;28;20040;-73
2021/12/24 06:46:18;;;;;;;28.33;12.95;;;;;;;9.01;98.02;100254.13;5092317;28;20104;-74
2021/12/24 06:48:45;;;;;;;30.50;11.93;;;;;;;8.96;98.03;100246.63;5084886;28;20040;-73
2021/12/24 06:51:12;;;;;;;35.88;13.07;;;;;;;8.98;98.59;100249.13;5076814;28;20566;-73
2021/12/24 06:53:40;;;;;;;31.42;9.80;;;;;;;9.05;97.69;100248.50;5051315;28;20051;-75
2021/12/24 06:56:07;;;;;;;21.35;10.18;;;;;;;9.05;97.60;100248.50;5069179;28;20044;-73
2021/12/24 06:58:33;;;;;;;24.02;10.90;;;;;;;9.06;96.63;100249.34;5071279;28;20043;-76
2021/12/24 07:01:00;;;;;;;37.33;13.02;;;;;;;9.03;96.80;100257.44;5068404;28;20040;-72
2021/12/24 07:03:27;;;;;;;32.78;11.05;;;;;;;9.02;97.06;100253.16;5071254;28;20076;-74
2021/12/24 07:05:54;;;;;;;31.60;12.00;;;;;;;8.97;97.71;100256.16;5068175;28;20041;-74
2021/12/24 07:08:20;;;;;;;28.52;11.25;;;;;;;9.02;97.09;100251.38;5071583;28;20526;-72
2021/12/24 07:10:48;;;;;;;30.75;11.13;;;;;;;9.04;97.14;100246.00;5067646;28;20123;-73
2021/12/24 07:13:15;;;;;;;31.17;11.85;;;;;;;9.05;97.30;100247.69;5072160;28;20048;-75
2021/12/24 07:15:41;;;;;;;28.45;11.35;;;;;;;9.02;96.91;100253.16;5072460;28;20059;-73
2021/12/24 07:18:08;;;;;;;35.97;11.65;;;;;;;9.02;96.68;100240.06;5072517;28;20041;-75
2021/12/24 07:20:35;;;;;;;25.45;11.40;;;;;;;8.98;97.51;100244.72;5070687;28;20118;-75
2021/12/24 07:23:01;;;;;;;40.35;12.80;;;;;;;9.02;97.59;100250.53;5072698;28;20085;-75
2021/12/24 07:25:28;;;;;;;26.58;10.27;;;;;;;9.07;96.55;100257.06;5071894;28;20111;-74
2021/12/24 07:27:56;;;;;;;27.40;11.02;;;;;;;9.03;97.13;100260.06;5071100;28;20132;-74
2021/12/24 07:30:23;;;;;;;22.48;10.45;;;;;;;9.03;96.75;100252.22;5059586;28;20044;-76
2021/12/24 07:32:50;;;;;;;30.23;11.32;;;;;;;9.04;96.72;100254.69;5059317;28;20045;-75
2021/12/24 07:35:18;;;;;;;43.65;11.65;;;;;;;9.05;96.85;100252.94;5057404;28;20048;-74
2021/12/24 07:37:45;;;;;;;23.30;10.35;;;;;;;9.03;97.30;100255.66;5056424;28;20044;-73
2021/12/24 07:40:15;;;;;;;26.42;11.20;;;;;;;8.99;96.73;100258.63;5040694;28;20052;-73
2021/12/24 07:42:41;;;;;;;32.28;10.50;;;;;;;8.99;96.48;100259.47;5057755;28;20044;-75
2021/12/24 07:45:10;;;;;;;25.73;11.63;;;;;;;9.01;96.21;100256.72;5059219;28;20127;-73
2021/12/24 07:47:41;;;;;;;32.92;11.77;;;;;;;9.00;96.55;100260.31;5059405;28;20152;-73
2021/12/24 07:51:57;;;;;;;29.95;11.93;;;;;;;9.00;96.48;100263.78;5055762;28;20726;-74
2021/12/24 07:53:03;;;;;;;27.77;10.85;;;;;;;8.97;97.61;100273.66;5050569;28;20110;-74
2021/12/24 07:55:30;;;;;;;19.08;8.05;;;;;;;9.03;96.88;100257.44;5050321;28;20044;-74
2021/12/24 07:57:56;;;;;;;39.60;12.80;;;;;;;9.00;97.68;100260.31;5055347;28;20055;-75
2021/12/24 08:00:26;;;;;;;31.67;11.40;;;;;;;9.05;96.87;100263.41;5057854;28;20102;-73
2021/12/24 08:02:53;;;;;;;34.20;13.13;;;;;;;9.09;96.49;100264.81;5056787;28;20460;-74
2021/12/24 08:05:24;;;;;;;29.20;12.98;;;;;;;9.06;96.51;100265.06;5058252;28;20052;-76
2021/12/24 08:07:52;;;;;;;23.83;11.45;;;;;;;9.03;97.36;100265.31;5058815;28;20086;-75
2021/12/24 08:10:19;;;;;;;31.58;12.60;;;;;;;9.08;96.38;100265.75;5057184;28;20077;-74
2021/12/24 08:12:46;;;;;;;36.50;12.15;;;;;;;9.08;97.01;100269.22;5059941;28;20040;-73
2021/12/24 08:15:13;;;;;;;41.40;13.98;;;;;;;9.04;96.92;100270.41;5057679;28;20036;-73
2021/12/24 08:17:42;;;;;;;24.15;10.55;;;;;;;9.07;97.18;100264.94;5057772;28;20406;-75
2021/12/24 08:20:09;;;;;;;40.10;13.35;;;;;;;9.05;97.02;100266.03;5059387;28;20090;-73
2021/12/24 08:22:36;;;;;;;32.42;12.57;;;;;;;9.08;96.40;100257.91;5047213;28;20044;-73
2021/12/24 08:25:07;;;;;;;22.88;10.63;;;;;;;9.06;96.34;100259.84;5069995;28;20036;-73
2021/12/24 08:27:34;;;;;;;27.40;10.93;;;;;;;9.06;96.44;100246.72;5078395;28;20025;-73
2021/12/24 08:30:01;;;;;;;36.30;11.48;;;;;;;9.06;97.35;100241.50;5078864;28;20634;-74
2021/12/24 08:32:29;;;;;;;33.85;9.93;;;;;;;9.05;96.91;100247.69;5060343;28;20032;-75
2021/12/24 08:34:57;;;;;;;29.48;11.60;;;;;;;9.05;96.48;100253.75;5041464;28;20052;-74
2021/12/24 08:37:25;;;;;;;21.13;9.48;;;;;;;9.11;96.41;100253.25;5056321;28;20071;-73
2021/12/24 08:39:51;;;;;;;36.88;12.43;;;;;;;9.11;97.25;100255.03;5041941;28;20055;-74
2021/12/24 08:42:25;;;;;;;21.70;8.80;;;;;;;9.16;96.87;100245.84;5075933;28;20079;-73
2021/12/24 08:44:53;;;;;;;38.85;10.10;;;;;;;9.17;96.70;100251.91;5077863;28;20116;-73
2021/12/24 08:47:20;;;;;;;35.47;10.95;;;;;;;9.20;95.49;100249.88;5074976;28;20044;-73
2021/12/24 08:49:47;;;;;;;32.35;11.60;;;;;;;9.20;96.05;100246.44;5061368;28;20514;-73
2021/12/24 08:55:06;;;;;;;39.45;13.15;;;;;;;9.21;96.35;100243.69;5126064;27;20395;-72
2021/12/24 08:57:34;;;;;;;28.55;11.68;;;;;;;9.19;95.61;100242.97;5129561;27;20035;-74
2021/12/24 09:00:03;;;;;;;42.33;10.27;;;;;;;9.18;95.25;100237.88;5135462;27;20051;-74
2021/12/24 09:02:29;;;;;;;24.60;12.13;;;;;;;9.22;95.35;100244.53;5147239;27;20125;-74
2021/12/24 09:04:56;;;;;;;44.05;12.15;;;;;;;9.21;95.64;100238.44;5145089;27;20038;-72
2021/12/24 09:07:23;;;;;;;31.73;9.95;;;;;;;9.24;95.50;100238.22;5151529;27;20049;-74
2021/12/24 09:09:49;;;;;;;23.13;7.35;;;;;;;9.31;94.37;100235.94;5152377;27;20491;-72
2021/12/24 09:12:17;;;;;;;32.83;9.38;;;;;;;9.30;94.95;100232.44;5140932;27;20034;-73
2021/12/24 09:14:44;;;;;;;18.88;8.88;;;;;;;9.31;94.51;100234.13;5150911;27;20119;-73
2021/12/24 09:17:11;;;;;;;19.35;6.40;;;;;;;9.36;94.63;100231.13;5145936;27;20166;-73
2021/12/24 09:19:44;;;;;;;21.23;7.13;;;;;;;9.37;94.24;100227.56;5154878;27;20038;-72
2021/12/24 09:22:16;;;;;;;20.88;7.32;;;;;;;9.33;94.06;100228.75;5145257;27;20502;-75
2021/12/24 09:24:43;;;;;;;45.75;12.45;;;;;;;9.39;94.98;100230.88;5153917;27;20485;-72
2021/12/24 09:27:10;;;;;;;33.90;8.73;;;;;;;9.45;94.96;100219.88;5140666;27;20119;-75
2021/12/24 09:29:39;;;;;;;32.63;9.77;;;;;;;9.52;93.96;100234.16;5126239;27;20047;-72
2021/12/24 09:35:25;;;;;;;17.83;7.85;;;;;;;9.53;93.80;100235.81;5097716;27;20054;-72
2021/12/24 09:37:52;;;;;;;51.75;8.85;;;;;;;9.53;93.22;100236.63;5146311;27;20127;-74
2021/12/24 09:40:19;;;;;;;26.05;6.88;;;;;;;9.58;93.48;100230.06;5151180;27;20312;-72
2021/12/24 09:42:47;;;;;;;33.22;7.68;;;;;;;9.62;93.58;100228.84;5144303;27;20192;-71
2021/12/24 09:45:16;;;;;;;30.83;9.18;;;;;;;9.62;93.25;100226.22;5149981;27;20077;-72
2021/12/24 09:47:45;;;;;;;26.60;8.63;;;;;;;9.70;93.02;100218.56;5146965;27;20042;-73
2021/12/24 09:50:15;;;;;;;21.58;9.32;;;;;;;9.79;92.48;100220.41;5144921;27;20069;-72
2021/12/24 09:52:45;;;;;;;24.98;8.85;;;;;;;9.88;91.98;100214.41;5149654;27;20057;-72
2021/12/24 09:55:14;;;;;;;37.47;11.05;;;;;;;9.97;92.57;100229.34;5145245;27;20047;-71
2021/12/24 09:57:42;;;;;;;29.02;11.50;;;;;;;9.96;91.69;100224.22;5148163;27;20103;-72
2021/12/24 10:00:11;;;;;;;23.77;9.25;;;;;;;9.98;91.25;100231.03;5125379;27;20137;-71
2021/12/24 10:02:44;;;;;;;15.65;7.15;;;;;;;9.93;91.11;100214.00;5151758;27;20044;-73
2021/12/24 10:05:39;;;;;;;22.70;9.25;;;;;;;9.87;92.33;100223.22;5125170;27;20134;-73
2021/12/24 10:08:12;;;;;;;33.35;9.65;;;;;;;9.90;91.72;100222.13;5096558;27;20062;-74
2021/12/24 10:10:41;;;;;;;21.42;7.25;;;;;;;9.83;92.70;100221.81;5135368;27;20037;-74
2021/12/24 10:13:32;;;;;;;21.52;8.27;;;;;;;9.77;92.46;100224.94;5119217;27;20093;-72
2021/12/24 10:16:02;;;;;;;23.52;8.45;;;;;;;9.78;91.71;100226.63;5131749;27;20614;-74
2021/12/24 10:18:34;;;;;;;19.85;6.75;;;;;;;9.72;92.45;100224.50;5136209;27;20051;-74
2021/12/24 10:21:04;;;;;;;25.27;7.97;;;;;;;9.71;92.09;100229.88;5131047;27;20129;-73
2021/12/24 10:23:46;;;;;;;22.02;8.52;;;;;;;9.72;92.26;100224.50;5137441;27;20043;-74
2021/12/24 10:26:14;;;;;;;22.10;7.73;;;;;;;9.72;91.52;100219.25;5132399;27;20081;-72
2021/12/24 10:28:50;;;;;;;22.55;8.07;;;;;;;9.67;91.58;100210.13;5140500;27;20050;-75
2021/12/24 10:31:18;;;;;;;21.58;6.10;;;;;;;9.64;92.15;100228.72;5128312;27;20151;-73
2021/12/24 10:34:23;;;;;;;30.20;8.02;;;;;;;9.58;92.98;100222.19;5119671;27;20129;-71
2021/12/24 10:37:11;;;;;;;29.30;8.88;;;;;;;9.59;92.54;100217.78;5114938;27;20393;-72
2021/12/24 10:39:49;;;;;;;27.80;9.23;;;;;;;9.55;92.83;100226.03;5121958;27;20128;-73
2021/12/24 10:42:19;;;;;;;25.90;8.18;;;;;;;9.51;93.46;100224.63;5141577;27;20063;-72
2021/12/24 10:44:48;;;;;;;21.55;8.55;;;;;;;9.52;94.45;100221.84;5145824;27;20066;-72
2021/12/24 10:47:18;;;;;;;18.75;7.78;;;;;;;9.48;93.25;100220.47;5139092;27;20039;-73
2021/12/24 10:50:10;;;;;;;25.20;7.50;;;;;;;9.45;95.07;100225.13;5139848;27;20045;-75
2021/12/24 10:55:37;;;;;;;27.30;8.02;;;;;;;9.42;94.96;100225.38;5137271;27;20026;-73
2021/12/24 10:58:06;;;;;;;16.83;8.40;;;;;;;9.44;94.42;100218.22;5117270;27;20047;-72
2021/12/24 11:00:38;;;;;;;22.05;9.02;;;;;;;9.45;95.24;100214.66;5143959;27;20065;-75
2021/12/24 11:03:06;;;;;;;30.92;9.88;;;;;;;9.47;95.63;100213.56;5149609;27;20034;-72
2021/12/24 11:05:37;;;;;;;12.07;6.30;;;;;;;9.53;95.00;100217.47;5152671;27;20053;-73
2021/12/24 11:08:07;;;;;;;18.58;8.18;;;;;;;9.55;94.21;100218.19;5132476;27;20156;-74
2021/12/24 11:10:37;;;;;;;13.75;7.05;;;;;;;9.52;95.08;100221.03;5131266;27;20089;-70
2021/12/24 11:13:08;;;;;;;17.45;9.60;;;;;;;9.48;94.94;100217.03;5129883;27;20039;-72
2021/12/24 11:15:37;;;;;;;38.40;9.93;;;;;;;9.47;95.20;100217.97;5132317;27;20035;-74
2021/12/24 11:18:06;;;;;;;24.05;9.15;;;;;;;9.48;95.44;100214.41;5125963;27;20391;-71
2021/12/24 11:20:34;;;;;;;27.58;8.57;;;;;;;9.46;94.96;100211.88;5135343;27;20035;-72
2021/12/24 11:23:09;;;;;;;23.92;7.75;;;;;;;9.47;95.43;100215.34;5135074;27;20045;-73
2021/12/24 11:25:38;;;;;;;40.00;11.80;;;;;;;9.54;96.21;100209.47;5131737;27;20070;-73
2021/12/24 11:28:06;;;;;;;21.92;9.10;;;;;;;9.57;94.92;100209.22;5129334;27;20078;-74
2021/12/24 11:30:35;;;;;;;20.02;10.07;;;;;;;9.59;94.66;100202.88;5135981;27;20073;-72
2021/12/24 11:33:03;;;;;;;35.13;10.13;;;;;;;9.64;94.94;100205.13;5128761;27;20099;-75
2021/12/24 11:35:33;;;;;;;29.88;10.73;;;;;;;9.63;94.17;100214.78;5140521;27;20039;-73
2021/12/24 11:38:01;;;;;;;42.00;10.32;;;;;;;9.58;94.19;100200.38;5124169;27;20047;-73
2021/12/24 11:40:30;;;;;;;22.00;11.07;;;;;;;9.62;94.62;100218.38;5134523;27;20066;-71
2021/12/24 11:43:00;;;;;;;32.10;12.13;;;;;;;9.64;94.01;100202.50;5126116;27;20038;-73
2021/12/24 11:45:29;;;;;;;30.83;10.27;;;;;;;9.64;94.07;100205.94;5138025;27;20049;-73
2021/12/24 11:47:56;;;;;;;43.63;13.02;;;;;;;9.68;93.69;100207.34;5137335;27;20049;-73
2021/12/24 11:50:24;;;;;;;7.93;4.68;;;;;;;9.71;93.50;100201.00;5132577;27;20043;-73
2021/12/24 11:52:53;;;;;;;9.30;6.15;;;;;;;9.70;93.66;100192.34;5133912;27;20038;-75
2021/12/24 11:55:21;;;;;;;31.25;11.05;;;;;;;9.71;94.33;100188.75;5130790;27;20046;-72
2021/12/24 11:57:54;;;;;;;19.50;8.38;;;;;;;9.76;92.98;100183.94;5112008;27;20146;-74
2021/12/24 12:00:23;;;;;;;44.60;14.55;;;;;;;9.80;93.55;100201.09;5132150;27;20039;-73
2021/12/24 12:02:50;;;;;;;35.15;10.90;;;;;;;9.67;92.90;100195.19;5135584;27;20145;-73
2021/12/24 12:05:24;;;;;;;21.40;9.20;;;;;;;9.66;93.75;100184.84;5128048;27;20155;-72
2021/12/24 12:07:51;;;;;;;21.27;9.50;;;;;;;9.60;94.13;100186.19;5131387;27;20047;-73
2021/12/24 12:10:51;;;;;;;18.23;9.10;;;;;;;9.62;92.24;100181.66;5133414;27;20536;-74
2021/12/24 12:13:54;;;;;;;42.63;9.23;;;;;;;9.63;93.56;100183.31;5131769;27;20042;-74
2021/12/24 12:16:23;;;;;;;24.33;8.65;;;;;;;9.67;92.31;100184.72;5132401;27;20030;-73
2021/12/24 12:19:03;;;;;;;25.58;10.98;;;;;;;9.71;92.55;100187.91;5130129;27;20146;-74
2021/12/24 12:21:40;;;;;;;14.02;8.48;;;;;;;9.77;92.05;100195.25;5127973;27;20038;-71
2021/12/24 12:26:58;;;;;;;22.48;8.93;;;;;;;9.83;92.03;100195.56;5137547;27;20042;-72
2021/12/24 12:29:30;;;;;;;21.25;10.43;;;;;;;9.87;91.36;100197.00;5127309;27;20141;-72
2021/12/24 12:32:03;;;;;;;17.90;9.50;;;;;;;9.88;92.25;100198.66;5118349;27;20122;-72
2021/12/24 12:34:48;;;;;;;23.60;9.30;;;;;;;9.89;91.71;100199.47;5133048;27;20049;-72
2021/12/24 12:37:16;;;;;;;27.92;10.80;;;;;;;9.85;92.79;100193.66;5149323;27;20042;-74
2021/12/24 12:39:43;;;;;;;24.38;11.27;;;;;;;9.85;93.12;100203.28;5139905;27;20045;-74
2021/12/24 12:42:13;;;;;;;30.50;10.57;;;;;;;9.80;92.54;100198.47;5130675;27;20038;-72
2021/12/24 12:44:45;;;;;;;24.08;10.18;;;;;;;9.77;93.05;100196.09;5143929;27;20070;-72
2021/12/24 12:47:13;;;;;;;;;;;;;;;9.73;93.07;100197.28;5133985;27;20104;-73
2021/12/24 12:49:54;;;;;;;32.45;10.70;;;;;;;9.72;93.47;100198.28;5134136;27;19932;-75
2021/12/24 12:52:29;;;;;;;26.23;12.35;;;;;;;9.72;93.47;100182.56;5132481;27;20039;-72
2021/12/24 12:54:57;;;;;;;18.63;10.73;;;;;;;9.74;93.59;100192.91;5134766;27;20497;-72
2021/12/24 12:57:27;;;;;;;30.77;10.52;;;;;;;9.65;93.37;100191.88;5113057;27;20703;-74